Weather at Ljubljana Jože Pučnik Airport

Public forecast

Using degrees Celsius for public forecast. Weather courtesy of forecast.io.

Current aviation weather report (METAR) for Ljubljana Jože Pučnik Airport

Report is more than 6 hours old.

Retrieved 2022/09/17 19:00 UTC (11 days ago):

LJLJ 171900Z VRB02KT 9999 MIFG FEW013 08/08 Q1010 NOSIG

Aviation forecast (TAF) for Ljubljana Jože Pučnik Airport

Forecast is more than 12 hours old.

Retrieved 2022/09/17 18:08 UTC (11 days ago):

TAF LJLJ 171700Z 1718/1818 30004KT 9999 FEW010 PROB40 1800/1807 0500 FG VV001